Terminal Aerodrome Forecast
Issued by NWS Mt. Holly, NJ

Home | Current Version | Previous Version | Text Only | Print | Product List | Glossary On
Versions: 1 2 3 4 5 6 7 8 9 10 11 12 13 14 15 16 17 18 19 20
582
FTUS41 KPHI 201740
TAFRDG
TAF
KRDG 201740Z 2018/2118 26008KT P6SM SCT050
     FM202200 25008KT P6SM BKN050
      TEMPO 2023/2101 29015G30KT 4SM TSRA OVC035CB
     FM210200 VRB03KT P6SM SCT100
      TEMPO 2108/2112 4SM BR SCT010
     FM211300 31006KT P6SM SCT100
     FM211600 28008KT P6SM SCT050=

USA.gov is the U.S. government's official web portal to all federal, state and local government web resources and services.